Time;durP1;ratioP1;P1;durP2;ratioP2;P2;SDS_P1;SDS_P2;PMS_P1;PMS_P2;Temp;Humidity;BMP_temperature;BMP_pressure;BME280_temperature;BME280_humidity;BME280_pressure;Samples;Min_cycle;Max_cycle;Signal;HPM_P1;HPM_P2
2023/10/15 00:00:12;;;;;;;3.40;0.70;;;;;;;;;;5052215;28;20403;-78
2023/10/15 00:02:38;;;;;;;2.93;0.90;;;;;;;;;;5052463;28;20078;-77
2023/10/15 00:05:05;;;;;;;4.50;0.95;;;;;;;;;;5052401;28;20258;-78
2023/10/15 00:07:30;;;;;;;2.50;0.85;;;;;;;;;;5052517;28;20017;-78
2023/10/15 00:09:56;;;;;;;3.83;0.90;;;;;;;;;;5052469;28;20130;-78
2023/10/15 00:12:21;;;;;;;5.55;0.98;;;;;;;;;;5052315;28;20017;-78
2023/10/15 00:14:46;;;;;;;4.68;0.90;;;;;;;;;;5054328;28;20027;-78
2023/10/15 00:17:11;;;;;;;4.43;0.90;;;;;;;;;;5055767;28;20025;-78
2023/10/15 00:19:39;;;;;;;4.13;1.00;;;;;;;;;;5055953;28;20775;-78
2023/10/15 00:22:07;;;;;;;2.78;0.93;;;;;;;;;;5055764;28;20427;-78
2023/10/15 00:24:32;;;;;;;4.95;0.95;;;;;;;;;;5055663;28;20484;-77
2023/10/15 00:26:58;;;;;;;4.25;1.15;;;;;;;;;;5055930;28;20068;-78
2023/10/15 00:29:24;;;;;;;3.83;0.98;;;;;;;;;;5055580;28;20104;-77
2023/10/15 00:31:50;;;;;;;4.05;0.80;;;;;;;;;;5054311;28;20104;-76
2023/10/15 00:34:16;;;;;;;4.80;0.73;;;;;;;;;;5055349;28;20459;-76
2023/10/15 00:36:42;;;;;;;2.88;0.90;;;;;;;;;;5053916;28;20024;-76
2023/10/15 00:39:10;;;;;;;4.13;0.95;;;;;;;;;;5055349;28;20434;-76
2023/10/15 00:41:35;;;;;;;5.20;1.00;;;;;;;;;;5053951;28;20495;-76
2023/10/15 00:44:00;;;;;;;3.38;0.73;;;;;;;;;;5055472;28;20064;-76
2023/10/15 00:46:37;;;;;;;4.15;0.90;;;;;;;;;;5055243;28;20399;-76
2023/10/15 00:49:09;;;;;;;5.85;0.85;;;;;;;;;;5053901;28;20021;-77
2023/10/15 00:51:40;;;;;;;8.15;1.30;;;;;;;;;;5053829;28;20036;-78
2023/10/15 00:54:11;;;;;;;3.17;0.80;;;;;;;;;;5055912;28;20116;-76
2023/10/15 00:56:38;;;;;;;6.25;1.00;;;;;;;;;;5055748;28;20070;-78
2023/10/15 00:59:18;;;;;;;7.85;1.10;;;;;;;;;;5054338;28;20036;-78
2023/10/15 01:04:31;;;;;;;3.28;0.90;;;;;;;;;;5055375;28;20128;-76
2023/10/15 01:07:00;;;;;;;4.32;1.15;;;;;;;;;;5053689;28;20029;-76
2023/10/15 01:09:29;;;;;;;5.50;1.00;;;;;;;;;;5053542;28;20031;-77
2023/10/15 01:11:56;;;;;;;2.97;0.75;;;;;;;;;;5054720;28;20052;-78
2023/10/15 01:14:27;;;;;;;6.05;1.20;;;;;;;;;;5054498;28;20082;-76
2023/10/15 01:16:53;;;;;;;3.03;0.70;;;;;;;;;;5053450;28;20048;-77
2023/10/15 01:19:20;;;;;;;8.18;1.15;;;;;;;;;;5053269;28;20028;-77
2023/10/15 01:21:53;;;;;;;6.65;1.20;;;;;;;;;;5054488;28;20028;-77
2023/10/15 01:24:20;;;;;;;4.30;1.00;;;;;;;;;;5054616;28;20044;-77
2023/10/15 01:29:27;;;;;;;4.82;1.10;;;;;;;;;;5054428;28;20025;-77
2023/10/15 01:31:58;;;;;;;6.20;1.40;;;;;;;;;;5054338;28;20064;-77
2023/10/15 01:34:27;;;;;;;3.33;1.02;;;;;;;;;;5054527;28;20032;-77
2023/10/15 01:36:56;;;;;;;4.88;0.80;;;;;;;;;;5052782;28;20398;-77
2023/10/15 01:39:22;;;;;;;2.90;0.95;;;;;;;;;;5052890;28;20083;-76
2023/10/15 01:41:58;;;;;;;4.03;1.40;;;;;;;;;;5053044;28;20515;-76
2023/10/15 01:44:24;;;;;;;6.50;0.80;;;;;;;;;;5052881;28;20021;-76
2023/10/15 01:47:07;;;;;;;6.82;1.00;;;;;;;;;;5052765;28;20022;-76
2023/10/15 01:49:32;;;;;;;4.18;0.70;;;;;;;;;;5052769;28;20610;-76
2023/10/15 01:52:05;;;;;;;2.78;0.93;;;;;;;;;;5054047;28;20111;-77
2023/10/15 01:54:31;;;;;;;2.97;1.00;;;;;;;;;;5053840;28;20036;-76
2023/10/15 01:56:57;;;;;;;3.05;1.40;;;;;;;;;;5052543;28;20024;-76
2023/10/15 01:59:23;;;;;;;5.07;0.95;;;;;;;;;;5053702;28;20112;-76
2023/10/15 02:01:51;;;;;;;3.83;1.00;;;;;;;;;;5053998;28;20040;-77
2023/10/15 02:04:25;;;;;;;4.15;1.08;;;;;;;;;;5053756;28;20480;-76
2023/10/15 02:06:51;;;;;;;6.47;1.02;;;;;;;;;;5053962;28;20032;-76
2023/10/15 02:09:21;;;;;;;3.42;0.90;;;;;;;;;;5052554;28;20079;-76
2023/10/15 02:11:54;;;;;;;5.10;1.20;;;;;;;;;;5053801;28;20031;-76
2023/10/15 02:14:27;;;;;;;4.57;1.02;;;;;;;;;;5054053;28;20444;-76
2023/10/15 02:16:54;;;;;;;4.90;0.90;;;;;;;;;;5052302;28;20074;-76
2023/10/15 02:21:56;;;;;;;3.45;0.80;;;;;;;;;;5053800;28;20074;-76
2023/10/15 02:24:23;;;;;;;4.20;1.08;;;;;;;;;;5053289;28;20021;-76
2023/10/15 02:26:48;;;;;;;5.97;1.02;;;;;;;;;;5052054;28;20025;-76
2023/10/15 02:32:43;;;;;;;2.60;1.02;;;;;;;;;;5055134;28;20029;-76
2023/10/15 02:34:42;;;;;;;5.32;1.00;;;;;;;;;;5052649;28;20411;-76
2023/10/15 02:37:13;;;;;;;3.70;0.90;;;;;;;;;;5052296;28;20116;-77
2023/10/15 02:39:44;;;;;;;2.75;0.93;;;;;;;;;;5055889;28;20051;-78
2023/10/15 02:42:10;;;;;;;3.97;0.98;;;;;;;;;;5054522;28;20017;-78
2023/10/15 02:44:38;;;;;;;7.85;1.20;;;;;;;;;;5052484;28;20028;-78
2023/10/15 02:47:07;;;;;;;4.82;1.10;;;;;;;;;;5053380;28;20113;-78
2023/10/15 02:49:50;;;;;;;5.53;1.00;;;;;;;;;;5052588;28;20021;-78
2023/10/15 02:52:19;;;;;;;5.78;0.98;;;;;;;;;;5051709;28;20033;-77
2023/10/15 02:54:45;;;;;;;1.83;0.80;;;;;;;;;;5052236;28;20024;-77
2023/10/15 02:57:18;;;;;;;7.85;1.05;;;;;;;;;;5052929;28;20506;-76
2023/10/15 02:59:52;;;;;;;6.65;1.00;;;;;;;;;;5053123;28;20033;-76
2023/10/15 03:02:21;;;;;;;11.18;1.27;;;;;;;;;;5053105;28;20119;-76
2023/10/15 03:04:54;;;;;;;7.25;1.20;;;;;;;;;;5051838;28;20431;-76
2023/10/15 03:07:25;;;;;;;3.92;1.10;;;;;;;;;;5053477;28;20021;-76
2023/10/15 03:09:56;;;;;;;6.53;1.05;;;;;;;;;;5053322;28;20492;-77
2023/10/15 03:12:23;;;;;;;5.30;1.00;;;;;;;;;;5052760;28;20025;-76
2023/10/15 03:14:49;;;;;;;6.22;1.10;;;;;;;;;;5051651;28;20049;-76
2023/10/15 03:17:23;;;;;;;7.53;1.30;;;;;;;;;;5051430;28;20052;-76
2023/10/15 03:19:49;;;;;;;7.15;1.27;;;;;;;;;;5052755;28;20021;-78
2023/10/15 03:22:15;;;;;;;5.13;1.42;;;;;;;;;;5054326;28;20079;-77
2023/10/15 03:24:44;;;;;;;5.53;1.30;;;;;;;;;;5051372;28;20032;-76
2023/10/15 03:27:09;;;;;;;8.32;1.10;;;;;;;;;;5052686;28;20021;-77
2023/10/15 03:29:34;;;;;;;3.47;0.70;;;;;;;;;;5051447;28;20438;-77
2023/10/15 03:32:12;;;;;;;6.07;1.10;;;;;;;;;;5052665;28;20048;-77
2023/10/15 03:34:48;;;;;;;6.82;1.20;;;;;;;;;;5052841;28;20029;-76
2023/10/15 03:37:16;;;;;;;4.25;0.98;;;;;;;;;;5051347;28;20020;-77
2023/10/15 03:42:10;;;;;;;5.97;1.10;;;;;;;;;;5053035;28;20027;-77
2023/10/15 03:44:37;;;;;;;5.07;1.10;;;;;;;;;;5052519;28;20029;-76
2023/10/15 03:47:05;;;;;;;6.20;1.20;;;;;;;;;;5052726;28;20472;-76
2023/10/15 03:49:32;;;;;;;5.60;1.15;;;;;;;;;;5056276;28;20441;-76
2023/10/15 03:51:57;;;;;;;2.97;1.20;;;;;;;;;;5054994;28;20082;-77
2023/10/15 03:54:23;;;;;;;7.53;1.05;;;;;;;;;;5056125;28;20059;-77
2023/10/15 03:56:50;;;;;;;9.70;1.30;;;;;;;;;;5056197;28;20025;-77
2023/10/15 03:59:17;;;;;;;4.28;1.13;;;;;;;;;;5056095;28;20021;-77
2023/10/15 04:01:47;;;;;;;6.22;0.82;;;;;;;;;;5056127;28;20029;-77
2023/10/15 04:04:16;;;;;;;6.47;1.10;;;;;;;;;;5054681;28;20025;-77
2023/10/15 04:06:42;;;;;;;5.35;1.20;;;;;;;;;;5056038;28;20368;-77
2023/10/15 04:11:42;;;;;;;6.90;1.10;;;;;;;;;;5056250;28;20021;-77
2023/10/15 04:14:28;;;;;;;3.25;0.90;;;;;;;;;;5056020;28;20025;-76
2023/10/15 04:16:55;;;;;;;4.75;1.17;;;;;;;;;;5056134;28;20074;-76
2023/10/15 04:19:25;;;;;;;5.13;1.23;;;;;;;;;;5056313;28;20021;-76
2023/10/15 04:21:52;;;;;;;7.97;1.30;;;;;;;;;;5056294;28;20025;-76
2023/10/15 04:24:27;;;;;;;7.22;1.67;;;;;;;;;;5054370;28;20109;-76
2023/10/15 04:26:53;;;;;;;6.65;1.30;;;;;;;;;;5054536;28;20044;-76
2023/10/15 04:29:20;;;;;;;3.70;1.10;;;;;;;;;;5054395;28;20477;-77
2023/10/15 04:32:23;;;;;;;5.65;1.40;;;;;;;;;;5055851;28;20032;-77
2023/10/15 04:34:39;;;;;;;6.85;1.20;;;;;;;;;;5055104;28;20025;-77
2023/10/15 04:37:10;;;;;;;9.30;1.13;;;;;;;;;;5055479;28;20402;-77
2023/10/15 04:39:45;;;;;;;7.93;1.20;;;;;;;;;;5054095;28;20281;-76
2023/10/15 04:42:20;;;;;;;3.60;1.10;;;;;;;;;;5055538;28;20100;-77
2023/10/15 04:44:46;;;;;;;4.95;0.77;;;;;;;;;;5054135;28;20036;-77
2023/10/15 04:47:12;;;;;;;6.13;1.13;;;;;;;;;;5055302;28;20016;-78
2023/10/15 04:49:38;;;;;;;6.85;1.20;;;;;;;;;;5053891;28;20051;-77
2023/10/15 04:52:13;;;;;;;3.05;0.90;;;;;;;;;;5054150;28;20078;-77
2023/10/15 04:54:39;;;;;;;7.57;1.23;;;;;;;;;;5055186;28;20031;-77
2023/10/15 04:57:04;;;;;;;4.22;1.20;;;;;;;;;;5055316;28;20109;-77
2023/10/15 04:59:29;;;;;;;6.25;1.10;;;;;;;;;;5054195;28;20024;-77
2023/10/15 05:01:55;;;;;;;3.33;1.20;;;;;;;;;;5055215;28;20124;-77
2023/10/15 05:04:21;;;;;;;6.35;1.13;;;;;;;;;;5055110;28;20024;-77
2023/10/15 05:06:46;;;;;;;7.57;1.08;;;;;;;;;;5054961;28;20439;-76
2023/10/15 05:09:20;;;;;;;5.25;1.20;;;;;;;;;;5054802;28;20082;-78
2023/10/15 05:11:46;;;;;;;6.50;0.95;;;;;;;;;;5054826;28;20056;-77
2023/10/15 05:14:11;;;;;;;8.13;1.20;;;;;;;;;;5054768;28;20028;-76
2023/10/15 05:16:37;;;;;;;4.05;1.10;;;;;;;;;;5054587;28;20017;-77
2023/10/15 05:19:02;;;;;;;4.78;1.15;;;;;;;;;;5054725;28;20017;-78
2023/10/15 05:21:29;;;;;;;5.45;1.20;;;;;;;;;;5054622;28;20074;-77
2023/10/15 05:23:55;;;;;;;3.30;0.95;;;;;;;;;;5053428;28;20029;-76
2023/10/15 05:26:20;;;;;;;3.30;1.20;;;;;;;;;;5056861;28;20519;-78
2023/10/15 05:28:47;;;;;;;4.55;1.00;;;;;;;;;;5055303;28;20021;-78
2023/10/15 05:31:12;;;;;;;3.47;1.02;;;;;;;;;;5054359;28;20036;-77
2023/10/15 05:33:37;;;;;;;7.85;1.30;;;;;;;;;;5054263;28;20021;-78
2023/10/15 05:36:03;;;;;;;5.10;0.90;;;;;;;;;;5054238;28;20032;-78
2023/10/15 05:38:29;;;;;;;6.70;1.17;;;;;;;;;;5054288;28;20032;-77
2023/10/15 05:40:57;;;;;;;4.80;1.10;;;;;;;;;;5054221;28;20020;-78
2023/10/15 05:43:23;;;;;;;6.88;1.33;;;;;;;;;;5054455;28;20078;-78
2023/10/15 05:45:48;;;;;;;8.60;1.35;;;;;;;;;;5055434;28;20063;-77
2023/10/15 05:48:13;;;;;;;9.05;1.13;;;;;;;;;;5055053;28;20124;-77
2023/10/15 05:50:39;;;;;;;5.00;1.17;;;;;;;;;;5054078;28;20025;-76
2023/10/15 05:53:06;;;;;;;11.10;1.15;;;;;;;;;;5054009;28;20036;-76
2023/10/15 05:55:32;;;;;;;6.78;1.30;;;;;;;;;;5053918;28;20032;-77
2023/10/15 05:57:58;;;;;;;6.60;1.33;;;;;;;;;;5052585;28;20027;-77
2023/10/15 06:00:26;;;;;;;6.75;1.15;;;;;;;;;;5053037;28;20024;-78
2023/10/15 06:02:53;;;;;;;8.45;1.25;;;;;;;;;;5056354;28;20021;-78
2023/10/15 06:05:19;;;;;;;7.25;1.17;;;;;;;;;;5055735;28;20017;-76
2023/10/15 06:07:44;;;;;;;7.90;1.20;;;;;;;;;;5053731;28;20497;-77
2023/10/15 06:10:14;;;;;;;6.35;1.25;;;;;;;;;;5053985;28;20078;-78
2023/10/15 06:12:39;;;;;;;5.25;0.93;;;;;;;;;;5053457;28;20017;-77
2023/10/15 06:15:06;;;;;;;9.82;1.50;;;;;;;;;;5053865;28;20490;-77
2023/10/15 06:17:32;;;;;;;6.22;1.27;;;;;;;;;;5053487;28;20100;-77
2023/10/15 06:19:58;;;;;;;6.45;1.27;;;;;;;;;;5052041;28;20032;-77
2023/10/15 06:22:25;;;;;;;6.70;1.10;;;;;;;;;;5053343;28;20025;-77
2023/10/15 06:24:51;;;;;;;5.57;1.20;;;;;;;;;;5053420;28;20082;-77
2023/10/15 06:27:18;;;;;;;5.47;1.20;;;;;;;;;;5053924;28;20033;-76
2023/10/15 06:29:43;;;;;;;7.70;1.08;;;;;;;;;;5053549;28;20017;-77
2023/10/15 06:32:10;;;;;;;4.68;1.08;;;;;;;;;;5053241;28;20021;-77
2023/10/15 06:34:35;;;;;;;7.10;1.25;;;;;;;;;;5053284;28;20499;-77
2023/10/15 06:37:01;;;;;;;8.70;1.55;;;;;;;;;;5053196;28;20029;-77
2023/10/15 06:39:27;;;;;;;5.80;1.05;;;;;;;;;;5053057;28;20032;-77
2023/10/15 06:41:54;;;;;;;7.00;1.40;;;;;;;;;;5052180;28;20107;-77
2023/10/15 06:44:19;;;;;;;7.68;1.10;;;;;;;;;;5053034;28;20025;-77
2023/10/15 06:46:44;;;;;;;5.90;1.40;;;;;;;;;;5051768;28;20031;-77
2023/10/15 06:49:10;;;;;;;7.20;1.10;;;;;;;;;;5053107;28;20029;-77
2023/10/15 06:51:36;;;;;;;4.97;1.00;;;;;;;;;;5052999;28;20098;-77
2023/10/15 06:54:01;;;;;;;7.28;1.10;;;;;;;;;;5052918;28;20024;-76
2023/10/15 06:56:27;;;;;;;3.55;1.23;;;;;;;;;;5053325;28;20422;-77
2023/10/15 06:58:52;;;;;;;9.00;1.48;;;;;;;;;;5052865;28;20024;-77
2023/10/15 07:01:18;;;;;;;4.65;1.08;;;;;;;;;;5053060;28;20077;-77
2023/10/15 07:03:43;;;;;;;5.63;1.20;;;;;;;;;;5051707;28;20044;-77
2023/10/15 07:06:09;;;;;;;8.68;1.33;;;;;;;;;;5052850;28;20017;-77
2023/10/15 07:08:34;;;;;;;8.70;1.00;;;;;;;;;;5053141;28;20460;-77
2023/10/15 07:11:00;;;;;;;2.42;0.98;;;;;;;;;;5052855;28;20102;-77
2023/10/15 07:13:26;;;;;;;4.80;0.85;;;;;;;;;;5052763;28;20523;-77
2023/10/15 07:15:52;;;;;;;6.45;1.20;;;;;;;;;;5051570;28;20446;-77
2023/10/15 07:18:17;;;;;;;4.20;0.85;;;;;;;;;;5052744;28;20025;-77
2023/10/15 07:20:42;;;;;;;3.72;1.02;;;;;;;;;;5051548;28;20495;-77
2023/10/15 07:23:08;;;;;;;4.45;1.13;;;;;;;;;;5053477;28;20063;-78
2023/10/15 07:25:33;;;;;;;5.22;0.90;;;;;;;;;;5056759;28;20497;-77
2023/10/15 07:28:00;;;;;;;4.38;1.20;;;;;;;;;;5055566;28;20017;-77
2023/10/15 07:30:26;;;;;;;5.70;1.27;;;;;;;;;;5056685;28;20021;-77
2023/10/15 07:32:58;;;;;;;5.00;1.17;;;;;;;;;;5056892;28;20020;-77
2023/10/15 07:35:25;;;;;;;6.22;0.93;;;;;;;;;;5056950;28;20396;-77
2023/10/15 07:37:51;;;;;;;7.93;1.33;;;;;;;;;;5056747;28;20456;-77
2023/10/15 07:40:18;;;;;;;10.05;1.42;;;;;;;;;;5056568;28;20033;-77
2023/10/15 07:42:54;;;;;;;5.03;1.15;;;;;;;;;;5055277;28;20021;-77
2023/10/15 07:45:26;;;;;;;4.57;1.17;;;;;;;;;;5056696;28;20025;-77
2023/10/15 07:47:52;;;;;;;3.65;0.77;;;;;;;;;;5056651;28;20025;-77
2023/10/15 07:50:18;;;;;;;7.30;0.98;;;;;;;;;;5056607;28;20024;-78
2023/10/15 07:52:43;;;;;;;5.55;0.95;;;;;;;;;;5055047;28;20111;-77
2023/10/15 07:55:11;;;;;;;5.90;1.17;;;;;;;;;;5056543;28;20515;-77
2023/10/15 07:57:37;;;;;;;7.32;1.13;;;;;;;;;;5055042;28;20021;-77
2023/10/15 08:00:07;;;;;;;8.90;1.23;;;;;;;;;;5055058;28;20503;-77
2023/10/15 08:02:35;;;;;;;8.32;1.40;;;;;;;;;;5056050;28;20033;-77
2023/10/15 08:05:00;;;;;;;6.30;1.20;;;;;;;;;;5056135;28;20115;-77
2023/10/15 08:07:25;;;;;;;9.00;1.20;;;;;;;;;;5056045;28;20056;-77
2023/10/15 08:09:51;;;;;;;6.43;0.82;;;;;;;;;;5055957;28;20369;-77
2023/10/15 08:12:20;;;;;;;6.43;1.20;;;;;;;;;;5055881;28;20492;-77
2023/10/15 08:14:46;;;;;;;5.70;1.02;;;;;;;;;;5056147;28;20025;-77
2023/10/15 08:17:13;;;;;;;8.73;1.10;;;;;;;;;;5055809;28;20021;-77
2023/10/15 08:19:39;;;;;;;5.57;1.50;;;;;;;;;;5056244;28;20104;-77
2023/10/15 08:22:05;;;;;;;5.43;0.98;;;;;;;;;;5055960;28;20457;-79
2023/10/15 08:24:30;;;;;;;5.85;1.23;;;;;;;;;;5055612;28;20049;-77
2023/10/15 08:26:55;;;;;;;6.05;1.17;;;;;;;;;;5056574;28;20468;-78
2023/10/15 08:29:20;;;;;;;4.90;1.08;;;;;;;;;;5056047;28;20013;-78
2023/10/15 08:31:46;;;;;;;4.00;1.10;;;;;;;;;;5055693;28;20111;-77
2023/10/15 08:34:12;;;;;;;8.88;1.00;;;;;;;;;;5054412;28;20037;-78
2023/10/15 08:36:37;;;;;;;5.07;1.05;;;;;;;;;;5053905;28;20033;-78
2023/10/15 08:39:06;;;;;;;6.35;1.17;;;;;;;;;;5055458;28;20029;-77
2023/10/15 08:41:36;;;;;;;4.43;1.10;;;;;;;;;;5054058;28;20572;-77
2023/10/15 08:44:03;;;;;;;7.05;1.48;;;;;;;;;;5055532;28;20025;-77
2023/10/15 08:46:30;;;;;;;6.88;1.10;;;;;;;;;;5055419;28;20025;-77
2023/10/15 08:48:58;;;;;;;3.00;1.00;;;;;;;;;;5053952;28;20484;-78
2023/10/15 08:51:24;;;;;;;4.25;0.98;;;;;;;;;;5054745;28;20025;-78
2023/10/15 08:53:50;;;;;;;7.03;1.13;;;;;;;;;;5055332;28;20033;-78
2023/10/15 08:56:21;;;;;;;5.60;1.75;;;;;;;;;;5054829;28;20017;-78
2023/10/15 08:58:52;;;;;;;3.78;1.08;;;;;;;;;;5055261;28;20025;-77
2023/10/15 09:01:18;;;;;;;4.18;1.13;;;;;;;;;;5055552;28;20480;-77
2023/10/15 09:03:46;;;;;;;8.63;1.13;;;;;;;;;;5055102;28;20033;-79
2023/10/15 09:06:12;;;;;;;3.85;1.02;;;;;;;;;;5055326;28;20067;-77
2023/10/15 09:08:41;;;;;;;6.10;1.10;;;;;;;;;;5055114;28;20029;-78
2023/10/15 09:11:10;;;;;;;6.68;1.40;;;;;;;;;;5054083;28;20032;-77
2023/10/15 09:13:36;;;;;;;4.82;1.35;;;;;;;;;;5055132;28;20392;-76
2023/10/15 09:16:04;;;;;;;10.23;1.40;;;;;;;;;;5053694;28;20021;-76
2023/10/15 09:18:31;;;;;;;6.68;1.02;;;;;;;;;;5055034;28;20142;-77
2023/10/15 09:20:58;;;;;;;6.70;1.58;;;;;;;;;;5054299;28;20031;-77
2023/10/15 09:23:23;;;;;;;5.63;1.30;;;;;;;;;;5054871;28;20086;-77
2023/10/15 09:25:53;;;;;;;5.43;1.38;;;;;;;;;;5054811;28;20025;-77
2023/10/15 09:28:20;;;;;;;1.55;0.80;;;;;;;;;;5053371;28;20449;-77
2023/10/15 09:30:46;;;;;;;7.05;1.23;;;;;;;;;;5054833;28;20171;-76
2023/10/15 09:33:16;;;;;;;4.25;1.00;;;;;;;;;;5054668;28;20028;-76
2023/10/15 09:35:42;;;;;;;5.82;1.08;;;;;;;;;;5054762;28;20071;-76
2023/10/15 09:38:10;;;;;;;5.05;1.10;;;;;;;;;;5054807;28;20024;-75
2023/10/15 09:40:35;;;;;;;4.75;1.17;;;;;;;;;;5053148;28;20075;-76
2023/10/15 09:43:01;;;;;;;7.43;1.40;;;;;;;;;;5054202;28;20037;-77
2023/10/15 09:45:26;;;;;;;4.72;1.40;;;;;;;;;;5053911;28;20031;-80
2023/10/15 09:47:54;;;;;;;21.83;1.85;;;;;;;;;;5054065;28;20040;-77
2023/10/15 09:50:24;;;;;;;5.75;1.50;;;;;;;;;;5054199;28;20013;-77
2023/10/15 09:52:56;;;;;;;6.72;1.10;;;;;;;;;;5053987;28;20056;-76
2023/10/15 09:55:28;;;;;;;7.10;1.27;;;;;;;;;;5054400;28;20496;-76
2023/10/15 09:57:55;;;;;;;5.28;1.50;;;;;;;;;;5054245;28;20372;-76
2023/10/15 10:03:31;;;;;;;3.80;1.20;;;;;;;;;;5054369;28;20446;-77
2023/10/15 10:06:30;;;;;;;2.83;0.98;;;;;;;;;;5053998;28;20070;-77
2023/10/15 10:09:10;;;;;;;2.47;0.98;;;;;;;;;;5053979;28;20028;-77
2023/10/15 10:11:51;;;;;;;6.13;1.23;;;;;;;;;;5052559;28;20116;-77
2023/10/15 10:14:38;;;;;;;6.00;1.10;;;;;;;;;;5053735;28;20052;-77
2023/10/15 10:17:05;;;;;;;3.03;1.15;;;;;;;;;;5054057;28;20032;-77
2023/10/15 10:19:31;;;;;;;3.40;1.15;;;;;;;;;;5053485;28;20036;-77
2023/10/15 10:21:58;;;;;;;5.20;0.98;;;;;;;;;;5053492;28;20064;-77
2023/10/15 10:24:24;;;;;;;3.53;0.88;;;;;;;;;;5052710;28;20484;-77
2023/10/15 10:26:56;;;;;;;2.95;0.90;;;;;;;;;;5052355;28;20120;-76
2023/10/15 10:29:26;;;;;;;2.55;1.10;;;;;;;;;;5053981;28;20021;-77
2023/10/15 10:31:54;;;;;;;2.90;1.00;;;;;;;;;;5052613;28;20547;-77
2023/10/15 10:34:29;;;;;;;4.32;1.13;;;;;;;;;;5053849;28;20040;-77
2023/10/15 10:36:55;;;;;;;3.92;1.10;;;;;;;;;;5053356;28;20385;-77
2023/10/15 10:39:22;;;;;;;2.97;0.73;;;;;;;;;;5053304;28;20024;-77
2023/10/15 10:41:59;;;;;;;6.47;1.30;;;;;;;;;;5051864;28;20029;-77
2023/10/15 10:44:24;;;;;;;3.95;1.05;;;;;;;;;;5052111;28;20068;-77
2023/10/15 10:46:52;;;;;;;3.87;1.03;;;;;;;;;;5053569;28;20024;-77
2023/10/15 10:49:28;;;;;;;3.95;1.05;;;;;;;;;;5053409;28;20740;-77
2023/10/15 10:52:14;;;;;;;2.60;0.95;;;;;;;;;;5051926;28;20024;-77
2023/10/15 10:54:40;;;;;;;3.25;1.00;;;;;;;;;;5052137;28;20017;-77
2023/10/15 10:57:10;;;;;;;4.20;0.95;;;;;;;;;;5052734;28;20392;-77
2023/10/15 10:59:38;;;;;;;3.20;1.05;;;;;;;;;;5051910;28;20399;-77
2023/10/15 11:02:11;;;;;;;3.33;0.90;;;;;;;;;;5052050;28;20119;-78
2023/10/15 11:04:37;;;;;;;4.10;0.90;;;;;;;;;;5051767;28;20439;-77
2023/10/15 11:07:03;;;;;;;2.05;0.95;;;;;;;;;;5052988;28;20629;-77
2023/10/15 11:09:29;;;;;;;6.45;1.30;;;;;;;;;;5053166;28;20024;-77
2023/10/15 11:11:56;;;;;;;3.42;1.15;;;;;;;;;;5052920;28;20025;-76
2023/10/15 11:14:25;;;;;;;5.20;1.27;;;;;;;;;;5051875;28;20442;-76
2023/10/15 11:16:51;;;;;;;4.43;1.50;;;;;;;;;;5051973;28;20025;-77
2023/10/15 11:19:21;;;;;;;5.25;1.20;;;;;;;;;;5053217;28;20033;-76
2023/10/15 11:21:51;;;;;;;3.40;1.20;;;;;;;;;;5053009;28;20075;-77
2023/10/15 11:24:18;;;;;;;5.18;1.30;;;;;;;;;;5052630;28;20459;-77
2023/10/15 11:26:47;;;;;;;3.05;0.82;;;;;;;;;;5052826;28;20028;-77
2023/10/15 11:29:14;;;;;;;4.50;0.90;;;;;;;;;;5053210;28;20025;-77
2023/10/15 11:31:45;;;;;;;3.72;1.17;;;;;;;;;;5052859;28;20017;-76
2023/10/15 11:34:22;;;;;;;5.43;1.50;;;;;;;;;;5051434;28;20415;-77
2023/10/15 11:36:49;;;;;;;5.40;1.40;;;;;;;;;;5053208;28;20033;-76
2023/10/15 11:39:18;;;;;;;4.18;1.40;;;;;;;;;;5051902;28;20389;-76
2023/10/15 11:41:56;;;;;;;5.55;1.27;;;;;;;;;;5052828;28;20096;-77
2023/10/15 11:44:31;;;;;;;2.78;1.13;;;;;;;;;;5052644;28;20075;-76
2023/10/15 11:46:57;;;;;;;3.95;1.10;;;;;;;;;;5053158;28;20095;-77
2023/10/15 11:49:25;;;;;;;1.95;0.82;;;;;;;;;;5051321;28;20021;-76
2023/10/15 11:51:55;;;;;;;5.18;1.17;;;;;;;;;;5051253;28;20029;-77
2023/10/15 11:54:23;;;;;;;3.47;1.20;;;;;;;;;;5051148;28;20502;-76
2023/10/15 11:56:50;;;;;;;2.65;1.08;;;;;;;;;;5052756;28;20488;-76
2023/10/15 11:59:16;;;;;;;5.78;1.40;;;;;;;;;;5052476;28;20112;-76
2023/10/15 12:01:44;;;;;;;3.33;1.02;;;;;;;;;;5053028;28;20024;-76
2023/10/15 12:04:11;;;;;;;3.17;1.10;;;;;;;;;;5052355;28;20472;-77
2023/10/15 12:06:36;;;;;;;4.30;1.13;;;;;;;;;;5052532;28;20036;-77
2023/10/15 12:09:02;;;;;;;4.77;1.27;;;;;;;;;;5053481;28;20537;-76
2023/10/15 12:11:27;;;;;;;4.13;1.88;;;;;;;;;;5056372;28;20277;-77
2023/10/15 12:13:53;;;;;;;4.45;1.85;;;;;;;;;;5056011;28;20108;-76
2023/10/15 12:16:18;;;;;;;3.53;1.48;;;;;;;;;;5056608;28;20031;-77
2023/10/15 12:18:44;;;;;;;6.05;1.40;;;;;;;;;;5055917;28;20104;-76
2023/10/15 12:21:09;;;;;;;4.25;1.33;;;;;;;;;;5054454;28;20040;-77
2023/10/15 12:23:34;;;;;;;4.00;1.17;;;;;;;;;;5055914;28;20472;-77
2023/10/15 12:26:00;;;;;;;4.53;1.30;;;;;;;;;;5054297;28;20028;-77
2023/10/15 12:28:26;;;;;;;4.53;1.35;;;;;;;;;;5055581;28;20369;-77
2023/10/15 12:30:53;;;;;;;2.80;1.23;;;;;;;;;;5055411;28;20036;-77
2023/10/15 12:33:19;;;;;;;4.53;1.30;;;;;;;;;;5055349;28;20032;-77
2023/10/15 12:35:44;;;;;;;3.30;1.07;;;;;;;;;;5053980;28;20415;-76
2023/10/15 12:38:16;;;;;;;3.08;0.90;;;;;;;;;;5055467;28;20249;-77
2023/10/15 12:40:42;;;;;;;2.20;0.77;;;;;;;;;;5055549;28;20071;-77
2023/10/15 12:43:15;;;;;;;1.95;1.10;;;;;;;;;;5053968;28;20028;-77
2023/10/15 12:45:43;;;;;;;4.53;1.08;;;;;;;;;;5053981;28;20025;-77
2023/10/15 12:48:09;;;;;;;2.63;1.00;;;;;;;;;;5055535;28;20017;-76
2023/10/15 12:50:37;;;;;;;6.43;1.23;;;;;;;;;;5053858;28;20032;-76
2023/10/15 12:53:03;;;;;;;4.75;1.10;;;;;;;;;;5053798;28;20029;-76
2023/10/15 12:55:29;;;;;;;4.18;1.15;;;;;;;;;;5054979;28;20024;-76
2023/10/15 12:57:55;;;;;;;1.45;1.10;;;;;;;;;;5054982;28;20387;-76
2023/10/15 13:00:26;;;;;;;6.03;1.40;;;;;;;;;;5054734;28;20025;-76
2023/10/15 13:02:53;;;;;;;7.00;1.00;;;;;;;;;;5055360;28;20503;-76
2023/10/15 13:05:21;;;;;;;6.93;1.17;;;;;;;;;;5055074;28;20024;-76
2023/10/15 13:07:46;;;;;;;4.28;1.10;;;;;;;;;;5054947;28;20612;-76
2023/10/15 13:10:13;;;;;;;5.35;1.33;;;;;;;;;;5054716;28;20078;-77
2023/10/15 13:12:41;;;;;;;3.08;0.93;;;;;;;;;;5054703;28;20032;-76
2023/10/15 13:15:10;;;;;;;4.05;0.90;;;;;;;;;;5054624;28;20503;-76
2023/10/15 13:17:38;;;;;;;2.70;0.95;;;;;;;;;;5054737;28;20426;-76
2023/10/15 13:20:07;;;;;;;1.75;0.90;;;;;;;;;;5054634;28;20078;-76
2023/10/15 13:22:33;;;;;;;2.78;1.10;;;;;;;;;;5054291;28;20044;-77
2023/10/15 13:24:58;;;;;;;4.47;1.10;;;;;;;;;;5054484;28;20476;-77
2023/10/15 13:27:24;;;;;;;3.67;1.10;;;;;;;;;;5054517;28;20515;-77
2023/10/15 13:29:50;;;;;;;2.05;1.00;;;;;;;;;;5054398;28;20384;-77
2023/10/15 13:32:16;;;;;;;2.30;1.00;;;;;;;;;;5054411;28;20025;-77
2023/10/15 13:34:41;;;;;;;4.97;1.30;;;;;;;;;;5053327;28;20023;-77
2023/10/15 13:37:07;;;;;;;5.55;1.15;;;;;;;;;;5054288;28;20116;-77
2023/10/15 13:39:32;;;;;;;4.78;1.10;;;;;;;;;;5054218;28;20021;-77
2023/10/15 13:41:59;;;;;;;1.98;0.82;;;;;;;;;;5054175;28;20037;-77
2023/10/15 13:44:25;;;;;;;1.55;0.90;;;;;;;;;;5053854;28;20434;-77
2023/10/15 13:46:51;;;;;;;5.40;1.02;;;;;;;;;;5054355;28;20021;-78
2023/10/15 13:49:17;;;;;;;2.42;1.00;;;;;;;;;;5052901;28;20090;-77
2023/10/15 13:51:42;;;;;;;3.30;1.02;;;;;;;;;;5055118;28;20025;-78
2023/10/15 13:54:08;;;;;;;2.63;1.00;;;;;;;;;;5054695;28;20480;-77
2023/10/15 13:56:33;;;;;;;1.88;0.88;;;;;;;;;;5053931;28;20029;-77
2023/10/15 13:58:59;;;;;;;1.20;0.90;;;;;;;;;;5053737;28;20100;-77
2023/10/15 14:01:24;;;;;;;2.20;0.93;;;;;;;;;;5053728;28;20075;-77
2023/10/15 14:03:51;;;;;;;2.50;0.70;;;;;;;;;;5052274;28;20029;-77
2023/10/15 14:06:18;;;;;;;4.47;0.93;;;;;;;;;;5052375;28;20060;-77
2023/10/15 14:08:43;;;;;;;3.67;0.98;;;;;;;;;;5052427;28;20020;-77
2023/10/15 14:11:10;;;;;;;3.80;1.15;;;;;;;;;;5053675;28;20027;-77
2023/10/15 14:13:35;;;;;;;1.58;0.80;;;;;;;;;;5052297;28;20017;-75
2023/10/15 14:16:02;;;;;;;1.35;0.63;;;;;;;;;;5053786;28;20468;-77
2023/10/15 14:18:30;;;;;;;0.80;0.50;;;;;;;;;;5052071;28;20036;-77
2023/10/15 14:20:56;;;;;;;2.15;0.70;;;;;;;;;;5052077;28;20108;-77
2023/10/15 14:23:21;;;;;;;1.55;0.47;;;;;;;;;;5053597;28;20159;-77
2023/10/15 14:25:50;;;;;;;1.08;0.50;;;;;;;;;;5053319;28;20048;-77
2023/10/15 14:28:15;;;;;;;1.50;0.60;;;;;;;;;;5052023;28;20115;-77
2023/10/15 14:30:40;;;;;;;1.02;0.47;;;;;;;;;;5053171;28;20056;-77
2023/10/15 14:33:06;;;;;;;1.30;0.52;;;;;;;;;;5052207;28;20219;-77
2023/10/15 14:35:33;;;;;;;1.23;0.50;;;;;;;;;;5051682;28;20025;-77
2023/10/15 14:37:58;;;;;;;2.53;0.75;;;;;;;;;;5051879;28;20021;-77
2023/10/15 14:40:24;;;;;;;1.00;0.63;;;;;;;;;;5053372;28;20322;-77
2023/10/15 14:42:49;;;;;;;1.65;0.70;;;;;;;;;;5051656;28;20574;-77
2023/10/15 14:45:16;;;;;;;1.30;0.73;;;;;;;;;;5053007;28;20025;-77
2023/10/15 14:47:42;;;;;;;1.55;0.75;;;;;;;;;;5053051;28;20262;-77
2023/10/15 14:50:12;;;;;;;1.65;0.82;;;;;;;;;;5052977;28;20086;-77
2023/10/15 14:52:37;;;;;;;4.05;0.88;;;;;;;;;;5052725;28;20513;-77
2023/10/15 14:55:03;;;;;;;1.77;0.90;;;;;;;;;;5052714;28;20024;-77
2023/10/15 14:57:29;;;;;;;1.77;0.95;;;;;;;;;;5051966;28;20025;-77
2023/10/15 14:59:54;;;;;;;4.32;0.93;;;;;;;;;;5052958;28;20083;-77
2023/10/15 15:02:19;;;;;;;1.10;0.77;;;;;;;;;;5052646;28;20479;-77
2023/10/15 15:04:45;;;;;;;5.53;1.23;;;;;;;;;;5051355;28;20028;-77